sensor_id;sensor_type;location;lat;lon;timestamp;pressure;altitude;pressure_sealevel;temperature;humidity
13476;BME280;6810;63.824;20.288;2023-01-23T00:01:24;103149.34;;;-3.24;100.00
13476;BME280;6810;63.824;20.288;2023-01-23T00:04:12;103153.88;;;-3.20;100.00
13476;BME280;6810;63.824;20.288;2023-01-23T00:06:59;103145.25;;;-3.17;100.00
13476;BME280;6810;63.824;20.288;2023-01-23T00:09:46;103133.09;;;-3.17;100.00
13476;BME280;6810;63.824;20.288;2023-01-23T00:12:33;103114.00;;;-3.16;100.00
13476;BME280;6810;63.824;20.288;2023-01-23T00:15:20;103115.13;;;-3.09;100.00
13476;BME280;6810;63.824;20.288;2023-01-23T00:18:07;103107.25;;;-3.11;100.00
13476;BME280;6810;63.824;20.288;2023-01-23T00:20:54;103124.81;;;-3.05;100.00
13476;BME280;6810;63.824;20.288;2023-01-23T00:23:43;103124.06;;;-3.03;100.00
13476;BME280;6810;63.824;20.288;2023-01-23T00:26:31;103116.28;;;-3.01;100.00
13476;BME280;6810;63.824;20.288;2023-01-23T00:29:18;103119.81;;;-2.99;100.00
13476;BME280;6810;63.824;20.288;2023-01-23T00:32:06;103075.59;;;-3.21;100.00
13476;BME280;6810;63.824;20.288;2023-01-23T00:34:53;103115.56;;;-2.97;100.00
13476;BME280;6810;63.824;20.288;2023-01-23T00:37:40;103112.09;;;-2.96;100.00
13476;BME280;6810;63.824;20.288;2023-01-23T00:40:27;103102.56;;;-2.96;100.00
13476;BME280;6810;63.824;20.288;2023-01-23T00:43:14;103094.78;;;-2.94;100.00
13476;BME280;6810;63.824;20.288;2023-01-23T00:46:01;103096.56;;;-2.93;100.00
13476;BME280;6810;63.824;20.288;2023-01-23T00:48:48;103091.28;;;-2.95;100.00
13476;BME280;6810;63.824;20.288;2023-01-23T00:51:35;103089.53;;;-2.96;100.00
13476;BME280;6810;63.824;20.288;2023-01-23T00:54:22;103094.75;;;-2.96;100.00
13476;BME280;6810;63.824;20.288;2023-01-23T00:57:09;103094.75;;;-2.96;100.00
13476;BME280;6810;63.824;20.288;2023-01-23T00:59:56;103083.72;;;-3.12;100.00
13476;BME280;6810;63.824;20.288;2023-01-23T01:02:44;103120.72;;;-2.99;100.00
13476;BME280;6810;63.824;20.288;2023-01-23T01:05:31;103116.34;;;-3.00;100.00
13476;BME280;6810;63.824;20.288;2023-01-23T01:08:18;103112.84;;;-3.00;100.00
13476;BME280;6810;63.824;20.288;2023-01-23T01:11:06;103118.91;;;-3.01;100.00
13476;BME280;6810;63.824;20.288;2023-01-23T01:13:57;103125.81;;;-3.02;100.00
13476;BME280;6810;63.824;20.288;2023-01-23T01:16:46;103124.94;;;-3.02;100.00
13476;BME280;6810;63.824;20.288;2023-01-23T01:19:33;103121.44;;;-3.03;100.00
13476;BME280;6810;63.824;20.288;2023-01-23T01:22:20;103132.69;;;-3.04;100.00
13476;BME280;6810;63.824;20.288;2023-01-23T01:25:07;103126.63;;;-3.04;100.00
13476;BME280;6810;63.824;20.288;2023-01-23T01:27:54;103124.00;;;-3.04;100.00
13476;BME280;6810;63.824;20.288;2023-01-23T01:30:41;103133.50;;;-3.06;100.00
13476;BME280;6810;63.824;20.288;2023-01-23T01:33:28;103121.34;;;-3.06;100.00
13476;BME280;6810;63.824;20.288;2023-01-23T01:36:20;103108.19;;;-3.09;100.00
13476;BME280;6810;63.824;20.288;2023-01-23T01:39:07;103118.69;;;-3.07;100.00
13476;BME280;6810;63.824;20.288;2023-01-23T01:41:54;103094.22;;;-3.11;100.00
13476;BME280;6810;63.824;20.288;2023-01-23T01:44:57;103101.13;;;-3.11;100.00
13476;BME280;6810;63.824;20.288;2023-01-23T01:47:45;103114.22;;;-3.10;100.00
13476;BME280;6810;63.824;20.288;2023-01-23T01:50:32;103109.00;;;-3.10;100.00
13476;BME280;6810;63.824;20.288;2023-01-23T01:53:20;103100.16;;;-3.15;100.00
13476;BME280;6810;63.824;20.288;2023-01-23T01:56:11;103103.69;;;-3.13;100.00
13476;BME280;6810;63.824;20.288;2023-01-23T01:59:00;103089.69;;;-3.16;100.00
13476;BME280;6810;63.824;20.288;2023-01-23T02:01:52;103106.09;;;-3.19;100.00
13476;BME280;6810;63.824;20.288;2023-01-23T02:04:45;103098.31;;;-3.17;100.00
13476;BME280;6810;63.824;20.288;2023-01-23T02:07:38;103109.53;;;-3.20;100.00
13476;BME280;6810;63.824;20.288;2023-01-23T02:10:26;103112.09;;;-3.21;100.00
13476;BME280;6810;63.824;20.288;2023-01-23T02:13:25;103108.53;;;-3.23;100.00
13476;BME280;6810;63.824;20.288;2023-01-23T02:16:27;103088.50;;;-3.24;100.00
13476;BME280;6810;63.824;20.288;2023-01-23T02:19:27;103087.50;;;-3.28;100.00
13476;BME280;6810;63.824;20.288;2023-01-23T02:26:03;103087.41;;;-3.31;100.00
13476;BME280;6810;63.824;20.288;2023-01-23T02:28:51;103069.50;;;-3.45;100.00
13476;BME280;6810;63.824;20.288;2023-01-23T02:31:50;103079.34;;;-3.37;100.00
13476;BME280;6810;63.824;20.288;2023-01-23T02:34:38;103078.56;;;-3.34;100.00
13476;BME280;6810;63.824;20.288;2023-01-23T02:37:28;103087.22;;;-3.35;100.00
13476;BME280;6810;63.824;20.288;2023-01-23T02:40:16;103085.38;;;-3.39;100.00
13476;BME280;6810;63.824;20.288;2023-01-23T02:43:08;103088.78;;;-3.40;100.00
13476;BME280;6810;63.824;20.288;2023-01-23T02:46:08;103088.78;;;-3.40;100.00
13476;BME280;6810;63.824;20.288;2023-01-23T02:48:56;103087.91;;;-3.41;100.00
13476;BME280;6810;63.824;20.288;2023-01-23T02:51:44;103085.25;;;-3.42;100.00
13476;BME280;6810;63.824;20.288;2023-01-23T02:54:31;103091.22;;;-3.45;100.00
13476;BME280;6810;63.824;20.288;2023-01-23T02:57:18;103102.44;;;-3.47;100.00
13476;BME280;6810;63.824;20.288;2023-01-23T03:00:07;103083.91;;;-3.55;100.00
13476;BME280;6810;63.824;20.288;2023-01-23T03:03:03;103098.88;;;-3.49;100.00
13476;BME280;6810;63.824;20.288;2023-01-23T03:05:50;103092.75;;;-3.51;100.00
13476;BME280;6810;63.824;20.288;2023-01-23T03:08:37;103091.66;;;-3.57;100.00
13476;BME280;6810;63.824;20.288;2023-01-23T03:11:24;103096.09;;;-3.54;100.00
13476;BME280;6810;63.824;20.288;2023-01-23T03:14:14;103084.72;;;-3.56;100.00
13476;BME280;6810;63.824;20.288;2023-01-23T03:17:02;103075.13;;;-3.57;100.00
13476;BME280;6810;63.824;20.288;2023-01-23T03:19:49;103082.06;;;-3.58;100.00
13476;BME280;6810;63.824;20.288;2023-01-23T03:22:37;103074.97;;;-3.62;100.00
13476;BME280;6810;63.824;20.288;2023-01-23T03:25:27;103084.50;;;-3.62;100.00
13476;BME280;6810;63.824;20.288;2023-01-23T03:28:14;103033.88;;;-3.92;100.00
13476;BME280;6810;63.824;20.288;2023-01-23T03:30:59;103078.38;;;-3.64;100.00
13476;BME280;6810;63.824;20.288;2023-01-23T03:33:47;103074.75;;;-3.68;100.00
13476;BME280;6810;63.824;20.288;2023-01-23T03:36:34;103081.72;;;-3.67;100.00
13476;BME280;6810;63.824;20.288;2023-01-23T03:39:23;103086.00;;;-3.69;100.00
13476;BME280;6810;63.824;20.288;2023-01-23T03:42:09;103072.94;;;-3.70;100.00
13476;BME280;6810;63.824;20.288;2023-01-23T03:44:57;103059.84;;;-3.72;100.00
13476;BME280;6810;63.824;20.288;2023-01-23T03:47:44;103063.16;;;-3.76;100.00
13476;BME280;6810;63.824;20.288;2023-01-23T03:50:32;103060.53;;;-3.76;100.00
13476;BME280;6810;63.824;20.288;2023-01-23T03:53:20;103062.06;;;-3.82;100.00
13476;BME280;6810;63.824;20.288;2023-01-23T03:56:07;103067.44;;;-3.78;100.00
13476;BME280;6810;63.824;20.288;2023-01-23T03:58:55;103061.16;;;-3.83;100.00
13476;BME280;6810;63.824;20.288;2023-01-23T04:01:42;103057.72;;;-3.82;100.00
13476;BME280;6810;63.824;20.288;2023-01-23T04:04:33;103043.75;;;-3.84;100.00
13476;BME280;6810;63.824;20.288;2023-01-23T04:07:20;102965.78;;;-4.25;100.00
13476;BME280;6810;63.824;20.288;2023-01-23T04:10:07;102974.44;;;-4.26;100.00
13476;BME280;6810;63.824;20.288;2023-01-23T04:13:02;102985.75;;;-4.25;100.00
13476;BME280;6810;63.824;20.288;2023-01-23T04:15:50;103065.19;;;-3.91;100.00
13476;BME280;6810;63.824;20.288;2023-01-23T04:18:37;103072.94;;;-3.92;100.00
13476;BME280;6810;63.824;20.288;2023-01-23T04:21:25;103065.06;;;-3.94;100.00
13476;BME280;6810;63.824;20.288;2023-01-23T04:24:12;103025.09;;;-4.18;100.00
13476;BME280;6810;63.824;20.288;2023-01-23T04:26:59;103066.66;;;-3.97;100.00
13476;BME280;6810;63.824;20.288;2023-01-23T04:29:46;103060.47;;;-4.01;100.00
13476;BME280;6810;63.824;20.288;2023-01-23T04:32:34;103068.28;;;-4.01;100.00
13476;BME280;6810;63.824;20.288;2023-01-23T04:35:21;103062.13;;;-4.03;100.00
13476;BME280;6810;63.824;20.288;2023-01-23T04:38:09;103069.03;;;-4.03;100.00
13476;BME280;6810;63.824;20.288;2023-01-23T04:41:03;103057.69;;;-4.05;100.00
13476;BME280;6810;63.824;20.288;2023-01-23T04:43:58;103050.69;;;-4.06;100.00
13476;BME280;6810;63.824;20.288;2023-01-23T04:47:03;103052.44;;;-4.07;100.00
13476;BME280;6810;63.824;20.288;2023-01-23T04:49:50;103041.06;;;-4.09;100.00
13476;BME280;6810;63.824;20.288;2023-01-23T04:52:39;103033.19;;;-4.10;100.00
13476;BME280;6810;63.824;20.288;2023-01-23T04:55:26;103048.81;;;-4.10;100.00
13476;BME280;6810;63.824;20.288;2023-01-23T04:58:16;103049.59;;;-4.13;100.00
13476;BME280;6810;63.824;20.288;2023-01-23T05:01:06;103046.09;;;-4.13;100.00
13476;BME280;6810;63.824;20.288;2023-01-23T05:03:57;103035.38;;;-4.21;100.00
13476;BME280;6810;63.824;20.288;2023-01-23T05:06:46;103032.91;;;-4.18;100.00
13476;BME280;6810;63.824;20.288;2023-01-23T05:09:38;103033.66;;;-4.20;100.00
13476;BME280;6810;63.824;20.288;2023-01-23T05:12:25;103030.91;;;-4.23;100.00
13476;BME280;6810;63.824;20.288;2023-01-23T05:15:12;103048.41;;;-4.21;100.00
13476;BME280;6810;63.824;20.288;2023-01-23T05:17:59;103040.19;;;-4.31;100.00
13476;BME280;6810;63.824;20.288;2023-01-23T05:20:46;103035.84;;;-4.31;100.00
13476;BME280;6810;63.824;20.288;2023-01-23T05:23:33;103044.59;;;-4.29;100.00
13476;BME280;6810;63.824;20.288;2023-01-23T05:26:21;103040.28;;;-4.28;100.00
13476;BME280;6810;63.824;20.288;2023-01-23T05:29:08;103052.41;;;-4.29;100.00
13476;BME280;6810;63.824;20.288;2023-01-23T05:32:06;103015.31;;;-4.45;100.00
13476;BME280;6810;63.824;20.288;2023-01-23T05:35:14;103048.84;;;-4.31;100.00
13476;BME280;6810;63.824;20.288;2023-01-23T05:38:01;103050.53;;;-4.33;100.00
13476;BME280;6810;63.824;20.288;2023-01-23T05:40:48;103061.75;;;-4.34;100.00
13476;BME280;6810;63.824;20.288;2023-01-23T05:43:54;103059.78;;;-4.39;100.00
13476;BME280;6810;63.824;20.288;2023-01-23T05:46:51;103052.78;;;-4.42;100.00
13476;BME280;6810;63.824;20.288;2023-01-23T05:49:39;103070.28;;;-4.38;100.00
13476;BME280;6810;63.824;20.288;2023-01-23T05:52:30;103066.72;;;-4.40;100.00
13476;BME280;6810;63.824;20.288;2023-01-23T05:55:18;103085.81;;;-4.39;100.00
13476;BME280;6810;63.824;20.288;2023-01-23T05:58:06;103098.78;;;-4.41;99.96
13476;BME280;6810;63.824;20.288;2023-01-23T06:01:12;103092.66;;;-4.41;100.00
13476;BME280;6810;63.824;20.288;2023-01-23T06:04:08;103089.13;;;-4.43;100.00
13476;BME280;6810;63.824;20.288;2023-01-23T06:07:15;103092.53;;;-4.44;100.00
13476;BME280;6810;63.824;20.288;2023-01-23T06:10:07;103101.19;;;-4.45;100.00
13476;BME280;6810;63.824;20.288;2023-01-23T06:12:55;103093.31;;;-4.47;100.00
13476;BME280;6810;63.824;20.288;2023-01-23T06:15:42;103089.81;;;-4.47;100.00
13476;BME280;6810;63.824;20.288;2023-01-23T06:18:29;103076.63;;;-4.52;99.78
13476;BME280;6810;63.824;20.288;2023-01-23T06:21:16;103074.09;;;-4.50;100.00
13476;BME280;6810;63.824;20.288;2023-01-23T06:24:03;103079.03;;;-4.56;100.00
13476;BME280;6810;63.824;20.288;2023-01-23T06:26:50;103080.94;;;-4.52;99.78
13476;BME280;6810;63.824;20.288;2023-01-23T06:29:37;103080.81;;;-4.55;99.95
13476;BME280;6810;63.824;20.288;2023-01-23T06:32:24;103075.53;;;-4.57;99.78
13476;BME280;6810;63.824;20.288;2023-01-23T06:35:15;103078.16;;;-4.57;100.00
13476;BME280;6810;63.824;20.288;2023-01-23T06:38:02;103071.94;;;-4.60;100.00
13476;BME280;6810;63.824;20.288;2023-01-23T06:40:50;103055.06;;;-4.70;100.00
13476;BME280;6810;63.824;20.288;2023-01-23T06:43:40;103065.00;;;-4.60;100.00
13476;BME280;6810;63.824;20.288;2023-01-23T06:46:28;103068.41;;;-4.62;100.00
13476;BME280;6810;63.824;20.288;2023-01-23T06:49:15;103070.03;;;-4.64;100.00
13476;BME280;6810;63.824;20.288;2023-01-23T06:52:02;103087.38;;;-4.65;100.00
13476;BME280;6810;63.824;20.288;2023-01-23T06:54:50;103079.50;;;-4.66;100.00
13476;BME280;6810;63.824;20.288;2023-01-23T06:57:38;103085.44;;;-4.69;99.80
13476;BME280;6810;63.824;20.288;2023-01-23T07:00:26;103091.44;;;-4.71;99.44
13476;BME280;6810;63.824;20.288;2023-01-23T07:03:32;103078.41;;;-4.71;99.57
13476;BME280;6810;63.824;20.288;2023-01-23T07:06:19;103087.00;;;-4.74;100.00
13476;BME280;6810;63.824;20.288;2023-01-23T07:09:03;103097.34;;;-4.75;99.71
13476;BME280;6810;63.824;20.288;2023-01-23T07:12:00;103099.88;;;-4.77;99.54
13476;BME280;6810;63.824;20.288;2023-01-23T07:14:48;103099.75;;;-4.80;99.92
13476;BME280;6810;63.824;20.288;2023-01-23T07:17:38;103096.91;;;-4.84;99.99
13476;BME280;6810;63.824;20.288;2023-01-23T07:20:26;103093.66;;;-4.80;100.00
13476;BME280;6810;63.824;20.288;2023-01-23T07:23:13;103090.94;;;-4.83;99.96
13476;BME280;6810;63.824;20.288;2023-01-23T07:26:01;103089.19;;;-4.83;100.00
13476;BME280;6810;63.824;20.288;2023-01-23T07:28:49;103092.56;;;-4.85;99.39
13476;BME280;6810;63.824;20.288;2023-01-23T07:31:36;103099.47;;;-4.86;100.00
13476;BME280;6810;63.824;20.288;2023-01-23T07:34:23;103102.00;;;-4.87;100.00
13476;BME280;6810;63.824;20.288;2023-01-23T07:37:10;103107.13;;;-4.89;99.61
13476;BME280;6810;63.824;20.288;2023-01-23T07:39:57;103096.59;;;-4.92;99.18
13476;BME280;6810;63.824;20.288;2023-01-23T07:42:45;103100.94;;;-4.92;99.45
13476;BME280;6810;63.824;20.288;2023-01-23T07:45:31;103025.13;;;-5.43;100.00
13476;BME280;6810;63.824;20.288;2023-01-23T07:48:18;103107.72;;;-4.96;100.00
13476;BME280;6810;63.824;20.288;2023-01-23T07:51:05;103098.81;;;-5.01;98.96
13476;BME280;6810;63.824;20.288;2023-01-23T07:53:52;103091.84;;;-5.02;99.99
13476;BME280;6810;63.824;20.288;2023-01-23T07:56:20;103074.44;;;-5.04;99.74
13476;BME280;6810;63.824;20.288;2023-01-23T07:58:50;103077.09;;;-5.03;99.58
13476;BME280;6810;63.824;20.288;2023-01-23T08:01:17;103082.22;;;-5.04;98.91
13476;BME280;6810;63.824;20.288;2023-01-23T08:03:45;103083.94;;;-5.05;99.94
13476;BME280;6810;63.824;20.288;2023-01-23T08:06:13;103069.97;;;-5.07;99.88
13476;BME280;6810;63.824;20.288;2023-01-23T08:08:40;103067.31;;;-5.08;99.71
13476;BME280;6810;63.824;20.288;2023-01-23T08:11:08;103067.25;;;-5.10;99.11
13476;BME280;6810;63.824;20.288;2023-01-23T08:13:38;103070.66;;;-5.11;98.96
13476;BME280;6810;63.824;20.288;2023-01-23T08:16:06;103071.44;;;-5.13;99.87
13476;BME280;6810;63.824;20.288;2023-01-23T08:18:33;103076.53;;;-5.15;99.67
13476;BME280;6810;63.824;20.288;2023-01-23T08:21:02;103072.19;;;-5.16;99.38
13476;BME280;6810;63.824;20.288;2023-01-23T08:23:31;103075.59;;;-5.17;99.29
13476;BME280;6810;63.824;20.288;2023-01-23T08:26:03;103072.94;;;-5.18;99.31
13476;BME280;6810;63.824;20.288;2023-01-23T08:28:31;103067.69;;;-5.20;99.68
13476;BME280;6810;63.824;20.288;2023-01-23T08:31:03;103073.69;;;-5.21;99.70
13476;BME280;6810;63.824;20.288;2023-01-23T08:33:33;103074.50;;;-5.22;98.75
13476;BME280;6810;63.824;20.288;2023-01-23T08:36:00;103066.66;;;-5.23;98.97
13476;BME280;6810;63.824;20.288;2023-01-23T08:38:29;103067.47;;;-5.24;98.90
13476;BME280;6810;63.824;20.288;2023-01-23T08:40:58;103061.38;;;-5.25;99.27
13476;BME280;6810;63.824;20.288;2023-01-23T08:43:26;103066.53;;;-5.26;98.76
13476;BME280;6810;63.824;20.288;2023-01-23T08:45:55;103070.81;;;-5.27;99.12
13476;BME280;6810;63.824;20.288;2023-01-23T08:48:24;103072.41;;;-5.30;98.96
13476;BME280;6810;63.824;20.288;2023-01-23T08:50:58;103056.88;;;-5.29;99.57
13476;BME280;6810;63.824;20.288;2023-01-23T08:53:25;103040.34;;;-5.31;99.05
13476;BME280;6810;63.824;20.288;2023-01-23T08:55:52;103047.22;;;-5.32;98.70
13476;BME280;6810;63.824;20.288;2023-01-23T08:58:19;103047.94;;;-5.36;99.60
13476;BME280;6810;63.824;20.288;2023-01-23T09:00:46;103059.44;;;-5.30;99.06
13476;BME280;6810;63.824;20.288;2023-01-23T09:03:14;103051.50;;;-5.33;98.71
13476;BME280;6810;63.824;20.288;2023-01-23T09:05:41;103062.63;;;-5.36;99.43
13476;BME280;6810;63.824;20.288;2023-01-23T09:08:08;103062.81;;;-5.32;99.24
13476;BME280;6810;63.824;20.288;2023-01-23T09:10:35;103047.16;;;-5.33;98.92
13476;BME280;6810;63.824;20.288;2023-01-23T09:13:02;103056.81;;;-5.30;98.64
13476;BME280;6810;63.824;20.288;2023-01-23T09:15:30;103052.16;;;-5.38;98.68
13476;BME280;6810;63.824;20.288;2023-01-23T09:17:57;103064.56;;;-5.32;99.31
13476;BME280;6810;63.824;20.288;2023-01-23T09:20:24;103069.75;;;-5.32;98.84
13476;BME280;6810;63.824;20.288;2023-01-23T09:22:54;103073.22;;;-5.32;99.03
13476;BME280;6810;63.824;20.288;2023-01-23T09:25:22;103062.50;;;-5.39;98.44
13476;BME280;6810;63.824;20.288;2023-01-23T09:27:49;103055.41;;;-5.43;99.08
13476;BME280;6810;63.824;20.288;2023-01-23T09:30:16;103071.44;;;-5.32;98.61
13476;BME280;6810;63.824;20.288;2023-01-23T09:32:43;103067.16;;;-5.32;98.66
13476;BME280;6810;63.824;20.288;2023-01-23T09:35:10;103072.34;;;-5.32;98.87
13476;BME280;6810;63.824;20.288;2023-01-23T09:37:37;103074.94;;;-5.32;98.86
13476;BME280;6810;63.824;20.288;2023-01-23T09:40:34;103067.16;;;-5.32;99.05
13476;BME280;6810;63.824;20.288;2023-01-23T09:48:53;103026.88;;;-5.42;98.92
13476;BME280;6810;63.824;20.288;2023-01-23T09:52:04;103054.22;;;-5.30;98.84
13476;BME280;6810;63.824;20.288;2023-01-23T09:57:05;103058.66;;;-5.28;99.08
13476;BME280;6810;63.824;20.288;2023-01-23T09:59:38;103058.72;;;-5.26;99.29
13476;BME280;6810;63.824;20.288;2023-01-23T10:02:24;103044.56;;;-5.33;98.90
13476;BME280;6810;63.824;20.288;2023-01-23T10:04:53;103051.06;;;-5.23;99.63
13476;BME280;6810;63.824;20.288;2023-01-23T10:07:38;103045.94;;;-5.22;99.36
13476;BME280;6810;63.824;20.288;2023-01-23T10:19:03;103044.53;;;-5.14;99.11
13476;BME280;6810;63.824;20.288;2023-01-23T10:21:36;103038.56;;;-5.11;99.57
13476;BME280;6810;63.824;20.288;2023-01-23T10:27:36;103043.97;;;-5.07;99.89
13476;BME280;6810;63.824;20.288;2023-01-23T10:30:27;103054.50;;;-5.04;99.31
13476;BME280;6810;63.824;20.288;2023-01-23T10:33:17;103053.75;;;-5.01;100.00
13476;BME280;6810;63.824;20.288;2023-01-23T10:36:29;103043.50;;;-4.98;99.64
13476;BME280;6810;63.824;20.288;2023-01-23T10:39:18;103034.91;;;-4.96;99.76
13476;BME280;6810;63.824;20.288;2023-01-23T10:41:46;103029.78;;;-4.94;99.84
13476;BME280;6810;63.824;20.288;2023-01-23T10:44:18;103031.59;;;-4.92;99.99
13476;BME280;6810;63.824;20.288;2023-01-23T10:46:52;103019.31;;;-4.96;100.00
13476;BME280;6810;63.824;20.288;2023-01-23T10:49:29;103029.19;;;-4.87;99.19
13476;BME280;6810;63.824;20.288;2023-01-23T10:51:57;103015.44;;;-4.85;100.00
13476;BME280;6810;63.824;20.288;2023-01-23T10:54:26;103004.28;;;-4.82;99.97
13476;BME280;6810;63.824;20.288;2023-01-23T10:57:17;103012.19;;;-4.79;100.00
13476;BME280;6810;63.824;20.288;2023-01-23T11:00:04;103008.00;;;-4.76;100.00
13476;BME280;6810;63.824;20.288;2023-01-23T11:02:36;103002.63;;;-4.80;99.92
13476;BME280;6810;63.824;20.288;2023-01-23T11:05:36;103009.09;;;-4.71;99.47
13476;BME280;6810;63.824;20.288;2023-01-23T11:08:29;103009.22;;;-4.68;100.00
13476;BME280;6810;63.824;20.288;2023-01-23T11:11:17;102996.16;;;-4.69;99.97
13476;BME280;6810;63.824;20.288;2023-01-23T11:13:46;103000.75;;;-4.62;99.55
13476;BME280;6810;63.824;20.288;2023-01-23T11:16:35;103009.53;;;-4.60;99.47
13476;BME280;6810;63.824;20.288;2023-01-23T11:19:22;103016.53;;;-4.58;99.82
13476;BME280;6810;63.824;20.288;2023-01-23T11:22:25;103014.97;;;-4.54;100.00
13476;BME280;6810;63.824;20.288;2023-01-23T11:25:32;103011.66;;;-4.50;100.00
13476;BME280;6810;63.824;20.288;2023-01-23T11:28:25;103014.31;;;-4.49;100.00
13476;BME280;6810;63.824;20.288;2023-01-23T11:31:18;102989.31;;;-4.45;99.64
13476;BME280;6810;63.824;20.288;2023-01-23T11:34:11;102995.47;;;-4.43;100.00
13476;BME280;6810;63.824;20.288;2023-01-23T11:39:59;102992.19;;;-4.38;100.00
13476;BME280;6810;63.824;20.288;2023-01-23T11:42:48;102986.16;;;-4.37;100.00
13476;BME280;6810;63.824;20.288;2023-01-23T11:45:42;102970.44;;;-4.40;100.00
13476;BME280;6810;63.824;20.288;2023-01-23T12:00:38;102948.63;;;-4.20;100.00
13476;BME280;6810;63.824;20.288;2023-01-23T12:09:10;102964.47;;;-4.14;100.00
13476;BME280;6810;63.824;20.288;2023-01-23T12:14:26;102975.84;;;-4.12;100.00
13476;BME280;6810;63.824;20.288;2023-01-23T12:25:05;102929.94;;;-4.10;100.00
13476;BME280;6810;63.824;20.288;2023-01-23T12:27:46;102943.28;;;-4.01;99.99
13476;BME280;6810;63.824;20.288;2023-01-23T12:36:41;102937.41;;;-3.95;100.00
13476;BME280;6810;63.824;20.288;2023-01-23T12:39:16;102920.06;;;-3.95;100.00
13476;BME280;6810;63.824;20.288;2023-01-23T12:44:57;102926.25;;;-3.91;100.00
13476;BME280;6810;63.824;20.288;2023-01-23T12:47:47;102922.00;;;-3.89;100.00
13476;BME280;6810;63.824;20.288;2023-01-23T12:50:17;102919.44;;;-3.88;100.00
13476;BME280;6810;63.824;20.288;2023-01-23T12:52:58;102923.00;;;-3.86;100.00
13476;BME280;6810;63.824;20.288;2023-01-23T12:55:39;102925.59;;;-3.86;100.00
13476;BME280;6810;63.824;20.288;2023-01-23T12:58:12;102916.13;;;-3.84;100.00
13476;BME280;6810;63.824;20.288;2023-01-23T13:10:19;102905.09;;;-3.77;100.00
13476;BME280;6810;63.824;20.288;2023-01-23T13:13:06;102918.16;;;-3.75;100.00
13476;BME280;6810;63.824;20.288;2023-01-23T13:16:08;102899.94;;;-3.75;100.00
13476;BME280;6810;63.824;20.288;2023-01-23T13:18:58;102901.69;;;-3.74;100.00
13476;BME280;6810;63.824;20.288;2023-01-23T13:25:13;102882.69;;;-3.72;100.00
13476;BME280;6810;63.824;20.288;2023-01-23T13:28:33;102876.69;;;-3.69;100.00
13476;BME280;6810;63.824;20.288;2023-01-23T13:31:58;102872.38;;;-3.69;100.00
13476;BME280;6810;63.824;20.288;2023-01-23T13:34:38;102881.97;;;-3.68;100.00
13476;BME280;6810;63.824;20.288;2023-01-23T13:37:32;102877.63;;;-3.67;100.00
13476;BME280;6810;63.824;20.288;2023-01-23T13:40:32;102865.44;;;-3.68;100.00
13476;BME280;6810;63.824;20.288;2023-01-23T13:52:41;102839.03;;;-3.79;100.00
13476;BME280;6810;63.824;20.288;2023-01-23T13:55:43;102862.00;;;-3.67;100.00
13476;BME280;6810;63.824;20.288;2023-01-23T13:58:42;102875.28;;;-3.60;100.00
13476;BME280;6810;63.824;20.288;2023-01-23T14:01:49;102881.47;;;-3.56;100.00
13476;BME280;6810;63.824;20.288;2023-01-23T14:04:57;102878.84;;;-3.56;100.00
13476;BME280;6810;63.824;20.288;2023-01-23T14:08:17;102837.47;;;-3.74;100.00
13476;BME280;6810;63.824;20.288;2023-01-23T14:11:20;102860.81;;;-3.51;100.00
13476;BME280;6810;63.824;20.288;2023-01-23T14:14:22;102855.59;;;-3.51;100.00
13476;BME280;6810;63.824;20.288;2023-01-23T14:17:23;102864.31;;;-3.49;100.00
13476;BME280;6810;63.824;20.288;2023-01-23T14:20:25;102852.13;;;-3.50;100.00
13476;BME280;6810;63.824;20.288;2023-01-23T14:22:55;102842.13;;;-3.64;100.00
13476;BME280;6810;63.824;20.288;2023-01-23T14:25:22;102856.50;;;-3.49;100.00
13476;BME280;6810;63.824;20.288;2023-01-23T14:28:01;102865.31;;;-3.46;100.00
13476;BME280;6810;63.824;20.288;2023-01-23T14:30:29;102859.22;;;-3.46;100.00
13476;BME280;6810;63.824;20.288;2023-01-23T14:32:57;102782.25;;;-3.89;100.00
13476;BME280;6810;63.824;20.288;2023-01-23T14:35:29;102866.31;;;-3.42;100.00
13476;BME280;6810;63.824;20.288;2023-01-23T14:38:03;102861.09;;;-3.42;100.00
13476;BME280;6810;63.824;20.288;2023-01-23T14:40:31;102862.91;;;-3.40;100.00
13476;BME280;6810;63.824;20.288;2023-01-23T14:43:20;102855.09;;;-3.40;100.00
13476;BME280;6810;63.824;20.288;2023-01-23T14:48:49;102852.53;;;-3.38;100.00
13476;BME280;6810;63.824;20.288;2023-01-23T14:51:23;102824.31;;;-3.51;100.00
13476;BME280;6810;63.824;20.288;2023-01-23T14:54:17;102833.44;;;-3.37;100.00
13476;BME280;6810;63.824;20.288;2023-01-23T14:56:49;102830.88;;;-3.36;100.00
13476;BME280;6810;63.824;20.288;2023-01-23T14:59:29;102794.47;;;-3.61;100.00
13476;BME280;6810;63.824;20.288;2023-01-23T15:02:00;102814.13;;;-3.44;100.00
13476;BME280;6810;63.824;20.288;2023-01-23T15:04:42;102735.69;;;-3.80;100.00
13476;BME280;6810;63.824;20.288;2023-01-23T15:07:29;102814.47;;;-3.33;100.00
13476;BME280;6810;63.824;20.288;2023-01-23T15:10:21;102819.69;;;-3.33;100.00
13476;BME280;6810;63.824;20.288;2023-01-23T15:13:37;102814.47;;;-3.33;100.00
13476;BME280;6810;63.824;20.288;2023-01-23T15:16:32;102805.75;;;-3.34;100.00
13476;BME280;6810;63.824;20.288;2023-01-23T15:19:21;102800.59;;;-3.32;100.00
13476;BME280;6810;63.824;20.288;2023-01-23T15:22:27;102802.34;;;-3.31;100.00
13476;BME280;6810;63.824;20.288;2023-01-23T15:25:29;102757.28;;;-3.56;100.00
13476;BME280;6810;63.824;20.288;2023-01-23T15:28:47;102792.81;;;-3.31;100.00
13476;BME280;6810;63.824;20.288;2023-01-23T15:34:29;102808.50;;;-3.29;100.00
13476;BME280;6810;63.824;20.288;2023-01-23T15:37:22;102790.94;;;-3.36;100.00
13476;BME280;6810;63.824;20.288;2023-01-23T15:40:15;102806.84;;;-3.27;100.00
13476;BME280;6810;63.824;20.288;2023-01-23T15:43:08;102802.31;;;-3.33;100.00
13476;BME280;6810;63.824;20.288;2023-01-23T15:45:56;102806.03;;;-3.25;100.00
13476;BME280;6810;63.824;20.288;2023-01-23T15:48:43;102795.63;;;-3.25;100.00
13476;BME280;6810;63.824;20.288;2023-01-23T15:51:36;102780.88;;;-3.24;100.00